createdAt,value
2022-09-14T00:00:34.394Z,48.62
2022-09-14T00:01:34.487Z,42.62
2022-09-14T00:02:34.515Z,42.18
2022-09-14T00:03:34.373Z,42.05
2022-09-14T00:04:34.443Z,41.18
2022-09-14T00:05:34.359Z,41.63
2022-09-14T00:06:34.372Z,49.44
2022-09-14T00:07:34.342Z,46.37
2022-09-14T00:08:34.327Z,43.67
2022-09-14T00:09:34.349Z,36.06
2022-09-14T00:10:34.320Z,43.48
2022-09-14T00:11:34.310Z,47.77
2022-09-14T00:12:34.301Z,47.09
2022-09-14T00:13:34.289Z,45.24
2022-09-14T00:14:34.318Z,40.54
2022-09-14T00:15:34.302Z,35.14
2022-09-14T00:16:34.342Z,42.91
2022-09-14T00:17:34.257Z,45.06
2022-09-14T00:18:34.249Z,42.05
2022-09-14T00:19:34.272Z,49.68
2022-09-14T00:20:34.246Z,53.51
2022-09-14T00:21:34.220Z,40.84
2022-09-14T00:22:34.217Z,41.33
2022-09-14T00:23:34.208Z,44.99
2022-09-14T00:24:34.266Z,44.53
2022-09-14T00:25:34.215Z,45.70
2022-09-14T00:26:34.190Z,43.12
2022-09-14T00:27:34.179Z,45.75
2022-09-14T00:28:34.173Z,48.15
2022-09-14T00:29:34.167Z,38.50
2022-09-14T00:30:34.183Z,50.39
2022-09-14T00:31:34.179Z,54.03
2022-09-14T00:32:34.162Z,42.78
2022-09-14T00:33:34.131Z,55.12
2022-09-14T00:34:34.122Z,46.31
2022-09-14T00:35:34.175Z,48.95
2022-09-14T00:36:34.128Z,47.22
2022-09-14T00:37:34.107Z,45.87
2022-09-14T00:38:34.093Z,44.20
2022-09-14T00:39:34.090Z,45.75
2022-09-14T00:40:34.111Z,56.63
2022-09-14T00:41:34.109Z,46.20
2022-09-14T00:42:34.062Z,41.65
2022-09-14T00:43:34.056Z,58.06
2022-09-14T00:44:34.043Z,44.41
2022-09-14T00:45:34.118Z,52.35
2022-09-14T00:46:34.045Z,48.90
2022-09-14T00:47:34.024Z,46.29
2022-09-14T00:48:34.014Z,43.51
2022-09-14T00:49:34.006Z,47.91
2022-09-14T00:50:34.064Z,48.37
2022-09-14T00:51:33.993Z,45.92
2022-09-14T00:52:33.988Z,45.83
2022-09-14T00:53:33.994Z,48.49
2022-09-14T00:54:34.007Z,46.92
2022-09-14T00:55:33.990Z,48.90
2022-09-14T00:56:33.956Z,52.04
2022-09-14T00:57:33.950Z,51.75
2022-09-14T00:58:33.932Z,52.34
2022-09-14T00:59:33.939Z,56.23
2022-09-14T01:00:33.949Z,50.88
2022-09-14T01:01:33.958Z,46.77
2022-09-14T01:02:33.970Z,43.54
2022-09-14T01:03:33.904Z,60.59
2022-09-14T01:04:33.922Z,53.27
2022-09-14T01:05:33.920Z,55.39
2022-09-14T01:06:33.886Z,53.24
2022-09-14T01:07:33.884Z,53.68
2022-09-14T01:08:33.862Z,60.70
2022-09-14T01:09:33.867Z,45.88
2022-09-14T01:10:33.878Z,46.55
2022-09-14T01:11:33.846Z,45.23
2022-09-14T01:12:33.837Z,58.35
2022-09-14T01:13:33.863Z,55.33
2022-09-14T01:14:33.833Z,52.77
2022-09-14T01:15:33.838Z,45.31
2022-09-14T01:16:33.913Z,41.40
2022-09-14T01:17:33.799Z,42.28
2022-09-14T01:18:33.786Z,46.84
2022-09-14T01:19:33.778Z,62.23
2022-09-14T01:20:33.834Z,46.89
2022-09-14T01:21:33.762Z,39.27
2022-09-14T01:22:33.760Z,49.01
2022-09-14T01:23:33.753Z,45.91
2022-09-14T01:24:33.738Z,42.45
2022-09-14T01:25:33.762Z,51.41
2022-09-14T01:26:33.727Z,53.71
2022-09-14T01:27:33.733Z,51.67
2022-09-14T01:28:33.707Z,48.02
2022-09-14T01:29:33.696Z,45.99
2022-09-14T01:30:33.717Z,54.84
2022-09-14T01:31:33.759Z,57.13
2022-09-14T01:32:33.712Z,47.94
2022-09-14T01:33:33.668Z,48.08
2022-09-14T01:34:33.658Z,50.77
2022-09-14T01:35:33.677Z,53.24
2022-09-14T01:36:33.655Z,46.87
2022-09-14T01:37:33.636Z,40.83
2022-09-14T01:38:33.633Z,49.60
2022-09-14T01:39:33.636Z,45.27
2022-09-14T01:40:33.692Z,47.60
2022-09-14T01:41:33.622Z,47.77
2022-09-14T01:42:33.603Z,58.12
2022-09-14T01:43:36.706Z,43.19
2022-09-14T01:44:34.621Z,41.28
2022-09-14T01:45:33.642Z,48.17
2022-09-14T01:46:33.573Z,50.60
2022-09-14T01:47:33.564Z,54.90
2022-09-14T01:48:33.555Z,42.44
2022-09-14T01:49:34.591Z,42.79
2022-09-14T01:50:33.530Z,45.77
2022-09-14T01:51:34.538Z,50.29
2022-09-14T01:52:33.525Z,49.12
2022-09-14T01:53:33.521Z,54.23
2022-09-14T01:54:33.522Z,57.95
2022-09-14T01:55:33.535Z,47.17
2022-09-14T01:56:33.497Z,47.88
2022-09-14T01:57:34.492Z,53.14
2022-09-14T01:58:33.503Z,58.56
2022-09-14T01:59:33.473Z,47.87
2022-09-14T02:00:33.580Z,40.52
2022-09-14T02:01:33.461Z,42.62
2022-09-14T02:02:33.542Z,47.11
2022-09-14T02:03:33.441Z,48.02
2022-09-14T02:04:33.503Z,53.09
2022-09-14T02:05:33.433Z,48.79
2022-09-14T02:06:33.423Z,46.14
2022-09-14T02:07:33.416Z,46.59
2022-09-14T02:08:33.407Z,45.95
2022-09-14T02:09:33.454Z,47.91
2022-09-14T02:10:33.390Z,40.30
2022-09-14T02:11:33.385Z,38.37
2022-09-14T02:12:33.381Z,42.85
2022-09-14T02:13:33.369Z,49.42
2022-09-14T02:14:33.381Z,60.10
2022-09-14T02:15:33.349Z,46.88
2022-09-14T02:16:33.371Z,49.40
2022-09-14T02:17:33.342Z,44.12
2022-09-14T02:18:33.323Z,58.46
2022-09-14T02:19:33.380Z,47.10
2022-09-14T02:20:33.477Z,41.56
2022-09-14T02:21:33.340Z,48.93
2022-09-14T02:22:33.352Z,46.60
2022-09-14T02:23:33.287Z,44.62
2022-09-14T02:24:33.334Z,47.38
2022-09-14T02:25:33.279Z,40.87
2022-09-14T02:26:33.277Z,40.67
2022-09-14T02:27:33.287Z,46.23
2022-09-14T02:28:33.252Z,49.86
2022-09-14T02:29:33.269Z,58.50
2022-09-14T02:30:33.239Z,53.60
2022-09-14T02:31:33.288Z,51.14
2022-09-14T02:32:33.286Z,47.61
2022-09-14T02:33:33.215Z,45.99
2022-09-14T02:34:33.227Z,49.34
2022-09-14T02:35:34.199Z,47.12
2022-09-14T02:36:33.193Z,47.41
2022-09-14T02:37:33.178Z,50.48
2022-09-14T02:38:33.204Z,44.63
2022-09-14T02:39:33.193Z,44.58
2022-09-14T02:40:33.205Z,54.07
2022-09-14T02:41:33.182Z,54.49
2022-09-14T02:42:33.138Z,55.04
2022-09-14T02:43:33.132Z,53.82
2022-09-14T02:44:33.190Z,55.20
2022-09-14T02:45:33.117Z,54.92
2022-09-14T02:46:33.176Z,60.17
2022-09-14T02:47:33.097Z,58.35
2022-09-14T02:48:33.088Z,57.63
2022-09-14T02:49:33.151Z,57.07
2022-09-14T02:50:33.082Z,55.58
2022-09-14T02:51:33.068Z,44.23
2022-09-14T02:52:33.064Z,45.99
2022-09-14T02:53:33.125Z,48.11
2022-09-14T02:54:33.049Z,46.02
2022-09-14T02:55:33.061Z,43.31
2022-09-14T02:56:33.062Z,44.22
2022-09-14T02:57:33.062Z,49.23
2022-09-14T02:58:34.012Z,45.90
2022-09-14T02:59:33.001Z,53.70
2022-09-14T03:00:33.055Z,49.16
2022-09-14T03:01:33.039Z,50.63
2022-09-14T03:02:33.016Z,55.33
2022-09-14T03:03:35.616Z,51.94
2022-09-14T03:04:34.055Z,51.43
2022-09-14T03:05:32.963Z,53.83
2022-09-14T03:06:32.946Z,52.88
2022-09-14T03:07:32.937Z,52.56
2022-09-14T03:08:32.937Z,50.87
2022-09-14T03:09:33.256Z,53.22
2022-09-14T03:10:32.920Z,51.12
2022-09-14T03:11:32.914Z,49.98
2022-09-14T03:12:32.896Z,48.57
2022-09-14T03:13:32.889Z,51.37
2022-09-14T03:14:32.916Z,49.43
2022-09-14T03:15:32.877Z,52.83
2022-09-14T03:16:32.919Z,50.65
2022-09-14T03:17:32.864Z,54.56
2022-09-14T03:18:32.856Z,49.55
2022-09-14T03:19:32.875Z,61.30
2022-09-14T03:20:32.905Z,57.73
2022-09-14T03:21:32.827Z,54.89
2022-09-14T03:22:32.823Z,56.35
2022-09-14T03:23:32.814Z,55.38
2022-09-14T03:24:32.807Z,53.37
2022-09-14T03:25:32.830Z,56.39
2022-09-14T03:26:32.787Z,58.30
2022-09-14T03:27:32.787Z,55.85
2022-09-14T03:28:32.777Z,57.67
2022-09-14T03:29:32.765Z,56.82
2022-09-14T03:30:32.786Z,56.01
2022-09-14T03:31:32.829Z,58.78
2022-09-14T03:32:32.737Z,54.05
2022-09-14T03:33:32.732Z,55.33
2022-09-14T03:34:32.734Z,50.58
2022-09-14T03:35:32.747Z,53.64
2022-09-14T03:36:32.759Z,55.69
2022-09-14T03:37:33.700Z,48.29
2022-09-14T03:38:32.695Z,54.90
2022-09-14T03:39:32.687Z,51.08
2022-09-14T03:40:32.746Z,52.45
2022-09-14T03:41:32.704Z,51.11
2022-09-14T03:42:32.663Z,52.51
2022-09-14T03:43:32.649Z,49.59
2022-09-14T03:44:32.648Z,49.22
2022-09-14T03:45:32.668Z,53.87
2022-09-14T03:46:32.677Z,57.25
2022-09-14T03:47:32.626Z,53.38
2022-09-14T03:48:32.636Z,58.18
2022-09-14T03:49:32.613Z,53.86
2022-09-14T03:50:32.630Z,56.64
2022-09-14T03:51:32.616Z,55.26
2022-09-14T03:52:32.605Z,55.94
2022-09-14T03:53:32.581Z,47.97
2022-09-14T03:54:32.571Z,54.81
2022-09-14T03:55:32.615Z,59.13
2022-09-14T03:56:32.555Z,50.89
2022-09-14T03:57:32.550Z,56.30
2022-09-14T03:58:32.543Z,56.31
2022-09-14T03:59:32.534Z,56.73
2022-09-14T04:00:32.564Z,56.23
2022-09-14T04:01:32.629Z,57.37
2022-09-14T04:02:32.617Z,62.41
2022-09-14T04:03:32.502Z,58.10
2022-09-14T04:04:32.493Z,58.95
2022-09-14T04:05:32.513Z,62.70
2022-09-14T04:06:32.475Z,58.04
2022-09-14T04:07:32.470Z,55.78
2022-09-14T04:08:32.460Z,54.71
2022-09-14T04:09:32.491Z,51.00
2022-09-14T04:10:32.469Z,55.19
2022-09-14T04:11:32.445Z,56.22
2022-09-14T04:12:32.433Z,54.31
2022-09-14T04:13:32.421Z,54.07
2022-09-14T04:14:32.423Z,59.06
2022-09-14T04:15:32.440Z,59.82
2022-09-14T04:16:32.582Z,59.04
2022-09-14T04:17:32.391Z,58.71
2022-09-14T04:18:32.387Z,59.43
2022-09-14T04:19:32.383Z,59.01
2022-09-14T04:20:32.413Z,63.50
2022-09-14T04:21:32.455Z,57.38
2022-09-14T04:22:32.353Z,57.49
2022-09-14T04:23:32.345Z,57.57
2022-09-14T04:24:32.399Z,52.93
2022-09-14T04:25:32.783Z,55.77
2022-09-14T04:26:32.444Z,60.26
2022-09-14T04:27:32.324Z,58.41
2022-09-14T04:28:32.323Z,57.79
2022-09-14T04:29:32.371Z,54.83
2022-09-14T04:30:32.330Z,55.09
2022-09-14T04:31:32.363Z,55.70
2022-09-14T04:32:34.507Z,58.53
2022-09-14T04:33:33.269Z,53.83
2022-09-14T04:34:32.262Z,52.43
2022-09-14T04:35:32.258Z,59.77
2022-09-14T04:36:32.289Z,57.12
2022-09-14T04:37:32.263Z,54.10
2022-09-14T04:38:32.233Z,58.78
2022-09-14T04:39:32.230Z,63.29
2022-09-14T04:40:32.342Z,56.12
2022-09-14T04:41:32.211Z,55.63
2022-09-14T04:42:32.206Z,56.66
2022-09-14T04:43:32.228Z,56.49
2022-09-14T04:44:32.196Z,57.42
2022-09-14T04:45:32.188Z,57.06
2022-09-14T04:46:32.311Z,58.46
2022-09-14T04:47:32.222Z,60.32
2022-09-14T04:48:32.158Z,60.55
2022-09-14T04:49:32.153Z,61.00
2022-09-14T04:50:32.141Z,58.28
2022-09-14T04:51:32.158Z,60.08
2022-09-14T04:52:32.125Z,57.97
2022-09-14T04:53:32.121Z,57.28
2022-09-14T04:54:32.109Z,63.72
2022-09-14T04:55:32.098Z,62.10
2022-09-14T04:56:32.137Z,59.56
2022-09-14T04:57:32.096Z,61.15
2022-09-14T04:58:32.106Z,61.77
2022-09-14T04:59:32.071Z,59.08
2022-09-14T05:00:32.066Z,61.03
2022-09-14T05:01:32.135Z,59.47
2022-09-14T05:02:32.077Z,56.98
2022-09-14T05:03:32.055Z,55.05
2022-09-14T05:04:32.043Z,55.28
2022-09-14T05:05:32.068Z,53.57
2022-09-14T05:06:32.050Z,58.64
2022-09-14T05:07:32.025Z,55.51
2022-09-14T05:08:32.024Z,56.31
2022-09-14T05:09:32.036Z,53.77
2022-09-14T05:10:32.017Z,54.86
2022-09-14T05:11:32.015Z,55.79
2022-09-14T05:12:31.966Z,57.18
2022-09-14T05:13:31.963Z,59.20
2022-09-14T05:14:31.958Z,57.88
2022-09-14T05:15:32.055Z,59.26
2022-09-14T05:16:31.963Z,60.34
2022-09-14T05:17:31.928Z,61.47
2022-09-14T05:18:31.926Z,59.81
2022-09-14T05:19:31.912Z,60.16
2022-09-14T05:20:31.903Z,59.40
2022-09-14T05:21:31.923Z,63.25
2022-09-14T05:22:31.908Z,58.34
2022-09-14T05:23:31.944Z,58.24
2022-09-14T05:24:31.886Z,61.08
2022-09-14T05:25:31.881Z,58.91
2022-09-14T05:26:31.905Z,58.18
2022-09-14T05:27:31.853Z,60.79
2022-09-14T05:28:31.843Z,60.28
2022-09-14T05:29:31.895Z,57.56
2022-09-14T05:30:31.826Z,58.11
2022-09-14T05:31:31.907Z,58.77
2022-09-14T05:32:31.840Z,60.82
2022-09-14T05:33:31.803Z,60.51
2022-09-14T05:34:31.806Z,60.72
2022-09-14T05:35:31.819Z,59.23
2022-09-14T05:36:31.816Z,60.57
2022-09-14T05:37:31.770Z,59.96
2022-09-14T05:38:31.769Z,59.70
2022-09-14T05:39:31.769Z,61.86
2022-09-14T05:40:31.852Z,59.27
2022-09-14T05:41:31.782Z,57.88
2022-09-14T05:42:31.741Z,60.20
2022-09-14T05:43:31.737Z,58.50
2022-09-14T05:44:31.741Z,61.49
2022-09-14T05:45:31.720Z,58.55
2022-09-14T05:46:31.777Z,59.46
2022-09-14T05:47:34.801Z,58.96
2022-09-14T05:48:32.691Z,60.00
2022-09-14T05:49:31.707Z,61.96
2022-09-14T05:50:31.686Z,58.64
2022-09-14T05:51:31.671Z,57.52
2022-09-14T05:52:31.682Z,58.02
2022-09-14T05:53:31.663Z,58.80
2022-09-14T05:54:31.640Z,58.84
2022-09-14T05:55:31.626Z,58.42
2022-09-14T05:56:31.732Z,58.52
2022-09-14T05:57:31.732Z,61.80
2022-09-14T05:58:31.602Z,59.65
2022-09-14T05:59:31.605Z,59.71
2022-09-14T06:00:32.596Z,58.46
2022-09-14T06:01:31.631Z,58.80
2022-09-14T06:02:31.727Z,58.32
2022-09-14T06:03:31.573Z,59.20
2022-09-14T06:04:31.562Z,58.00
2022-09-14T06:05:31.620Z,57.38
2022-09-14T06:06:31.548Z,57.65
2022-09-14T06:07:31.572Z,58.04
2022-09-14T06:08:31.532Z,59.44
2022-09-14T06:09:33.297Z,59.64
2022-09-14T06:10:32.517Z,58.60
2022-09-14T06:11:31.513Z,58.43
2022-09-14T06:12:31.550Z,55.62
2022-09-14T06:13:31.515Z,57.48
2022-09-14T06:14:31.491Z,59.85
2022-09-14T06:15:31.492Z,58.97
2022-09-14T06:16:31.472Z,58.06
2022-09-14T06:17:31.529Z,58.41
2022-09-14T06:18:31.462Z,58.33
2022-09-14T06:19:31.442Z,56.40
2022-09-14T06:20:31.439Z,54.34
2022-09-14T06:21:31.430Z,57.22
2022-09-14T06:22:31.487Z,57.89
2022-09-14T06:23:31.434Z,58.07
2022-09-14T06:24:31.410Z,58.11
2022-09-14T06:25:31.406Z,56.31
2022-09-14T06:26:31.395Z,57.63
2022-09-14T06:27:31.412Z,58.16
2022-09-14T06:28:31.379Z,56.34
2022-09-14T06:29:31.464Z,60.40
2022-09-14T06:30:31.361Z,55.29
2022-09-14T06:31:31.344Z,57.91
2022-09-14T06:32:32.375Z,61.62
2022-09-14T06:33:31.416Z,59.23
2022-09-14T06:34:31.337Z,57.91
2022-09-14T06:35:31.322Z,56.84
2022-09-14T06:36:31.313Z,58.70
2022-09-14T06:37:31.332Z,57.67
2022-09-14T06:38:31.298Z,56.08
2022-09-14T06:39:31.292Z,53.25
2022-09-14T06:40:31.320Z,59.03
2022-09-14T06:41:31.278Z,58.55
2022-09-14T06:42:31.289Z,59.35
2022-09-14T06:43:31.267Z,58.03
2022-09-14T06:44:31.260Z,59.38
2022-09-14T06:45:31.262Z,60.51
2022-09-14T06:46:31.237Z,61.60
2022-09-14T06:47:31.266Z,56.23
2022-09-14T06:48:31.273Z,58.43
2022-09-14T06:49:31.218Z,58.48
2022-09-14T06:50:31.204Z,60.72
2022-09-14T06:51:31.196Z,60.49
2022-09-14T06:52:33.791Z,56.30
2022-09-14T06:53:32.184Z,55.89
2022-09-14T06:54:31.175Z,58.55
2022-09-14T06:55:31.171Z,59.58
2022-09-14T06:56:31.213Z,54.71
2022-09-14T06:57:31.150Z,57.24
2022-09-14T06:58:31.149Z,55.41
2022-09-14T06:59:31.140Z,55.38
2022-09-14T07:00:31.137Z,58.14
2022-09-14T07:01:31.150Z,62.53
2022-09-14T07:02:31.154Z,59.75
2022-09-14T07:03:31.103Z,57.12
2022-09-14T07:04:31.095Z,58.83
2022-09-14T07:05:31.099Z,57.69
2022-09-14T07:06:31.159Z,60.47
2022-09-14T07:07:31.089Z,59.13
2022-09-14T07:08:31.073Z,58.40
2022-09-14T07:09:31.059Z,57.05
2022-09-14T07:10:31.052Z,59.14
2022-09-14T07:11:31.073Z,60.30
2022-09-14T07:12:31.041Z,57.08
2022-09-14T07:13:31.033Z,60.84
2022-09-14T07:14:32.485Z,60.62
2022-09-14T07:15:32.013Z,60.45
2022-09-14T07:16:31.029Z,59.74
2022-09-14T07:17:30.991Z,59.60
2022-09-14T07:18:30.983Z,60.06
2022-09-14T07:19:30.968Z,59.94
2022-09-14T07:20:31.991Z,61.60
2022-09-14T07:21:30.996Z,59.83
2022-09-14T07:22:30.957Z,57.46
2022-09-14T07:23:30.944Z,60.61
2022-09-14T07:24:30.934Z,60.15
2022-09-14T07:25:30.930Z,55.42
2022-09-14T07:26:30.948Z,55.40
2022-09-14T07:27:30.919Z,55.93
2022-09-14T07:28:32.991Z,54.09
2022-09-14T07:29:30.904Z,59.36
2022-09-14T07:30:30.926Z,58.97
2022-09-14T07:31:30.957Z,56.67
2022-09-14T07:32:30.880Z,60.62
2022-09-14T07:33:30.869Z,53.83
2022-09-14T07:34:30.867Z,59.51
2022-09-14T07:35:30.847Z,61.26
2022-09-14T07:36:34.574Z,59.80
2022-09-14T07:37:31.828Z,58.50
2022-09-14T07:38:51.092Z,58.32
2022-09-14T07:39:32.815Z,59.73
2022-09-14T07:40:30.836Z,59.44
2022-09-14T07:41:30.803Z,57.78
2022-09-14T07:42:30.813Z,59.32
2022-09-14T07:43:30.783Z,59.19
2022-09-14T07:44:30.776Z,57.01
2022-09-14T07:45:30.804Z,53.82
2022-09-14T07:46:30.782Z,54.95
2022-09-14T07:47:30.748Z,58.59
2022-09-14T07:48:30.748Z,58.70
2022-09-14T07:49:30.750Z,57.65
2022-09-14T07:50:30.731Z,56.23
2022-09-14T07:51:30.718Z,59.77
2022-09-14T07:52:30.730Z,62.72
2022-09-14T07:53:30.719Z,59.59
2022-09-14T07:54:30.695Z,58.60
2022-09-14T07:55:30.685Z,58.93
2022-09-14T07:56:30.700Z,57.94
2022-09-14T07:57:54.624Z,57.41
2022-09-14T07:58:32.662Z,55.49
2022-09-14T07:59:36.162Z,58.66
2022-09-14T08:00:32.653Z,56.85
2022-09-14T08:01:30.743Z,56.69
2022-09-14T08:02:30.695Z,57.88
2022-09-14T08:03:30.635Z,56.35
2022-09-14T08:04:30.630Z,56.56
2022-09-14T08:05:30.610Z,57.71
2022-09-14T08:06:30.600Z,59.45
2022-09-14T08:07:30.640Z,55.22
2022-09-14T08:08:30.587Z,53.61
2022-09-14T08:09:30.575Z,57.17
2022-09-14T08:10:30.570Z,55.54
2022-09-14T08:11:30.571Z,57.37
2022-09-14T08:12:30.584Z,59.38
2022-09-14T08:13:30.554Z,57.33
2022-09-14T08:14:30.544Z,58.82
2022-09-14T08:15:30.532Z,58.27
2022-09-14T08:16:30.580Z,56.47
2022-09-14T08:17:30.547Z,58.87
2022-09-14T08:18:30.512Z,58.66
2022-09-14T08:19:30.503Z,61.35
2022-09-14T08:20:30.491Z,59.06
2022-09-14T08:21:30.486Z,57.00
2022-09-14T08:22:30.501Z,54.70
2022-09-14T08:23:30.470Z,60.32
2022-09-14T08:24:30.520Z,57.68
2022-09-14T08:25:30.453Z,54.81
2022-09-14T08:26:30.447Z,57.49
2022-09-14T08:27:30.468Z,59.91
2022-09-14T08:28:30.427Z,57.50
2022-09-14T08:29:30.424Z,57.38
2022-09-14T08:30:30.417Z,56.01
2022-09-14T08:31:30.434Z,55.63
2022-09-14T08:32:30.426Z,57.22
2022-09-14T08:33:30.392Z,60.21
2022-09-14T08:34:30.388Z,56.74
2022-09-14T08:35:53.995Z,56.99
2022-09-14T08:36:32.368Z,59.21
2022-09-14T08:37:30.383Z,58.13
2022-09-14T08:38:30.346Z,57.31
2022-09-14T08:39:30.340Z,57.53
2022-09-14T08:40:30.363Z,58.26
2022-09-14T08:41:30.331Z,62.04
2022-09-14T08:42:30.346Z,53.54
2022-09-14T08:43:30.308Z,57.30
2022-09-14T08:44:30.302Z,57.11
2022-09-14T08:45:30.386Z,59.15
2022-09-14T08:46:30.301Z,55.87
2022-09-14T08:47:30.309Z,57.77
2022-09-14T08:48:30.274Z,60.02
2022-09-14T08:49:30.262Z,60.79
2022-09-14T08:50:30.251Z,60.19
2022-09-14T08:51:30.248Z,59.50
2022-09-14T08:52:30.276Z,59.39
2022-09-14T08:53:30.231Z,59.99
2022-09-14T08:54:30.251Z,58.87
2022-09-14T08:55:30.223Z,58.18
2022-09-14T08:56:30.210Z,60.13
2022-09-14T08:57:30.235Z,61.59
2022-09-14T08:58:30.200Z,57.66
2022-09-14T08:59:30.191Z,56.16
2022-09-14T09:00:30.312Z,56.54
2022-09-14T09:01:30.171Z,58.86
2022-09-14T09:02:30.184Z,59.29
2022-09-14T09:03:30.224Z,55.53
2022-09-14T09:04:30.149Z,56.04
2022-09-14T09:05:30.142Z,58.73
2022-09-14T09:06:30.135Z,56.38
2022-09-14T09:07:30.160Z,58.15
2022-09-14T09:08:30.115Z,57.27
2022-09-14T09:09:30.111Z,50.70
2022-09-14T09:10:30.107Z,54.98
2022-09-14T09:11:30.089Z,59.21
2022-09-14T09:12:30.136Z,59.53
2022-09-14T09:13:30.077Z,55.62
2022-09-14T09:14:30.079Z,55.57
2022-09-14T09:15:30.067Z,55.44
2022-09-14T09:16:30.084Z,57.79
2022-09-14T09:17:30.080Z,56.99
2022-09-14T09:18:30.037Z,56.64
2022-09-14T09:19:30.038Z,58.31
2022-09-14T09:20:30.023Z,59.04
2022-09-14T09:21:30.010Z,55.53
2022-09-14T09:22:30.026Z,59.49
2022-09-14T09:23:29.996Z,59.31
2022-09-14T09:24:31.097Z,57.41
2022-09-14T09:25:29.974Z,53.79
2022-09-14T09:26:29.983Z,55.20
2022-09-14T09:27:29.995Z,57.42
2022-09-14T09:28:29.960Z,62.08
2022-09-14T09:29:29.949Z,57.94
2022-09-14T09:30:29.946Z,55.97
2022-09-14T09:31:29.965Z,56.85
2022-09-14T09:32:29.966Z,57.67
2022-09-14T09:33:29.930Z,57.87
2022-09-14T09:34:29.929Z,57.88
2022-09-14T09:35:29.961Z,61.16
2022-09-14T09:36:29.887Z,60.53
2022-09-14T09:37:30.935Z,58.48
2022-09-14T09:38:29.887Z,56.34
2022-09-14T09:39:29.899Z,52.53
2022-09-14T09:40:29.990Z,56.12
2022-09-14T09:41:29.854Z,55.79
2022-09-14T09:42:29.895Z,57.55
2022-09-14T09:43:48.442Z,61.92
2022-09-14T09:44:31.830Z,57.79
2022-09-14T09:45:29.844Z,58.02
2022-09-14T09:46:29.847Z,56.54
2022-09-14T09:47:29.813Z,59.10
2022-09-14T09:48:29.833Z,62.21
2022-09-14T09:49:29.806Z,52.30
2022-09-14T09:50:29.772Z,56.90
2022-09-14T09:51:30.783Z,58.13
2022-09-14T09:52:29.775Z,58.91
2022-09-14T09:53:29.787Z,57.99
2022-09-14T09:54:29.762Z,61.23
2022-09-14T09:55:29.749Z,59.49
2022-09-14T09:56:29.741Z,58.18
2022-09-14T09:57:29.737Z,55.92
2022-09-14T09:58:29.754Z,57.04
2022-09-14T09:59:29.714Z,61.42
2022-09-14T10:00:29.721Z,57.87
2022-09-14T10:01:29.894Z,56.71
2022-09-14T10:02:29.742Z,55.96
2022-09-14T10:03:29.735Z,57.31
2022-09-14T10:04:29.688Z,59.33
2022-09-14T10:05:29.669Z,57.15
2022-09-14T10:06:29.664Z,56.95
2022-09-14T10:07:29.659Z,59.59
2022-09-14T10:08:29.666Z,58.27
2022-09-14T10:09:29.637Z,57.75
2022-09-14T10:10:29.633Z,58.71
2022-09-14T10:11:29.616Z,57.31
2022-09-14T10:12:29.621Z,55.03
2022-09-14T10:13:29.644Z,57.59
2022-09-14T10:14:29.591Z,56.43
2022-09-14T10:15:29.582Z,55.47
2022-09-14T10:16:29.698Z,54.06
2022-09-14T10:17:29.583Z,57.80
2022-09-14T10:18:29.591Z,60.29
2022-09-14T10:19:29.558Z,58.23
2022-09-14T10:20:29.552Z,59.39
2022-09-14T10:21:29.553Z,55.53
2022-09-14T10:22:29.534Z,53.68
2022-09-14T10:23:29.552Z,59.61
2022-09-14T10:24:29.519Z,53.58
2022-09-14T10:25:29.523Z,61.51
2022-09-14T10:26:29.492Z,54.80
2022-09-14T10:27:33.255Z,58.90
2022-09-14T10:28:30.517Z,57.30
2022-09-14T10:29:29.486Z,55.40
2022-09-14T10:30:29.478Z,60.82
2022-09-14T10:31:29.512Z,57.63
2022-09-14T10:32:29.466Z,52.82
2022-09-14T10:33:29.481Z,55.51
2022-09-14T10:34:29.443Z,56.17
2022-09-14T10:35:29.456Z,59.84
2022-09-14T10:36:29.429Z,56.35
2022-09-14T10:37:29.425Z,55.63
2022-09-14T10:38:29.442Z,57.04
2022-09-14T10:39:29.414Z,58.05
2022-09-14T10:40:29.457Z,57.34
2022-09-14T10:41:29.396Z,56.13
2022-09-14T10:42:29.382Z,56.20
2022-09-14T10:43:31.308Z,57.00
2022-09-14T10:44:29.369Z,55.50
2022-09-14T10:45:29.364Z,55.39
2022-09-14T10:46:29.380Z,57.74
2022-09-14T10:47:29.343Z,57.63
2022-09-14T10:48:29.367Z,58.99
2022-09-14T10:49:29.360Z,56.93
2022-09-14T10:50:29.325Z,57.07
2022-09-14T10:51:29.313Z,59.71
2022-09-14T10:52:29.305Z,58.89
2022-09-14T10:53:29.413Z,56.60
2022-09-14T10:54:29.282Z,60.99
2022-09-14T10:55:29.284Z,58.51
2022-09-14T10:56:29.276Z,57.72
2022-09-14T10:57:29.264Z,62.78
2022-09-14T10:58:29.294Z,57.21
2022-09-14T10:59:29.247Z,56.91
2022-09-14T11:00:29.238Z,59.58
2022-09-14T11:01:29.272Z,58.09
2022-09-14T11:02:29.376Z,60.02
2022-09-14T11:03:29.241Z,58.27
2022-09-14T11:04:29.213Z,58.31
2022-09-14T11:05:29.194Z,56.94
2022-09-14T11:06:29.196Z,60.07
2022-09-14T11:07:29.186Z,57.39
2022-09-14T11:08:29.222Z,54.72
2022-09-14T11:09:29.187Z,58.43
2022-09-14T11:10:29.161Z,56.05
2022-09-14T11:11:29.146Z,56.55
2022-09-14T11:12:29.147Z,57.61
2022-09-14T11:13:29.161Z,56.15
2022-09-14T11:14:29.132Z,57.79
2022-09-14T11:15:29.125Z,57.50
2022-09-14T11:16:29.183Z,57.89
2022-09-14T11:17:29.108Z,55.84
2022-09-14T11:18:29.140Z,60.28
2022-09-14T11:19:29.092Z,53.47
2022-09-14T11:20:29.083Z,56.98
2022-09-14T11:21:29.082Z,58.86
2022-09-14T11:22:29.070Z,58.29
2022-09-14T11:23:29.090Z,56.15
2022-09-14T11:24:29.083Z,57.12
2022-09-14T11:25:29.048Z,57.07
2022-09-14T11:26:29.042Z,56.34
2022-09-14T11:27:29.029Z,57.23
2022-09-14T11:28:29.024Z,56.96
2022-09-14T11:29:29.052Z,56.85
2022-09-14T11:30:29.012Z,57.36
2022-09-14T11:31:29.051Z,55.63
2022-09-14T11:32:28.991Z,57.90
2022-09-14T11:33:31.244Z,58.93
2022-09-14T11:34:30.001Z,60.51
2022-09-14T11:35:28.969Z,57.89
2022-09-14T11:36:28.964Z,58.07
2022-09-14T11:37:28.954Z,57.99
2022-09-14T11:38:28.950Z,55.56
2022-09-14T11:39:28.960Z,55.51
2022-09-14T11:40:29.078Z,55.27
2022-09-14T11:41:28.926Z,59.31
2022-09-14T11:42:28.911Z,56.85
2022-09-14T11:43:28.942Z,56.99
2022-09-14T11:44:28.943Z,55.82
2022-09-14T11:45:28.891Z,54.66
2022-09-14T11:46:28.934Z,59.91
2022-09-14T11:47:28.876Z,58.52
2022-09-14T11:48:44.340Z,56.51
2022-09-14T11:49:30.876Z,56.01
2022-09-14T11:50:28.852Z,52.84
2022-09-14T11:51:28.843Z,58.29
2022-09-14T11:52:28.902Z,56.12
2022-09-14T11:53:28.830Z,57.08
2022-09-14T11:54:28.885Z,57.00
2022-09-14T11:55:28.820Z,55.83
2022-09-14T11:56:28.819Z,53.49
2022-09-14T11:57:28.803Z,55.68
2022-09-14T11:58:29.667Z,55.88
2022-09-14T11:59:28.786Z,56.68
2022-09-14T12:00:28.778Z,60.28
2022-09-14T12:01:28.776Z,55.87
2022-09-14T12:02:28.799Z,52.31
2022-09-14T12:03:28.862Z,52.96
2022-09-14T12:04:28.751Z,58.30
2022-09-14T12:05:28.733Z,58.13
2022-09-14T12:06:28.729Z,53.06
2022-09-14T12:07:28.722Z,58.10
2022-09-14T12:08:28.748Z,55.73
2022-09-14T12:09:28.707Z,56.07
2022-09-14T12:10:28.703Z,57.34
2022-09-14T12:11:28.697Z,56.37
2022-09-14T12:12:28.686Z,59.38
2022-09-14T12:13:28.677Z,56.58
2022-09-14T12:14:28.728Z,56.16
2022-09-14T12:15:28.828Z,57.83
2022-09-14T12:16:31.604Z,57.08
2022-09-14T12:17:45.945Z,55.99
2022-09-14T12:18:30.671Z,56.33
2022-09-14T12:19:28.640Z,58.47
2022-09-14T12:20:28.691Z,54.65
2022-09-14T12:21:28.624Z,58.22
2022-09-14T12:22:28.617Z,56.46
2022-09-14T12:23:28.608Z,56.64
2022-09-14T12:24:28.704Z,57.75
2022-09-14T12:25:28.590Z,55.15
2022-09-14T12:26:28.585Z,54.51
2022-09-14T12:27:28.574Z,57.68
2022-09-14T12:28:28.576Z,56.21
2022-09-14T12:29:28.589Z,55.60
2022-09-14T12:30:28.550Z,58.71
2022-09-14T12:31:28.618Z,55.00
2022-09-14T12:32:28.564Z,58.40
2022-09-14T12:33:28.529Z,61.02
2022-09-14T12:34:28.549Z,59.12
2022-09-14T12:35:28.517Z,57.75
2022-09-14T12:36:28.521Z,54.85
2022-09-14T12:37:28.503Z,55.42
2022-09-14T12:38:28.496Z,61.11
2022-09-14T12:39:28.519Z,54.22
2022-09-14T12:40:28.506Z,58.62
2022-09-14T12:41:29.480Z,58.29
2022-09-14T12:42:28.487Z,58.08
2022-09-14T12:43:28.461Z,61.64
2022-09-14T12:44:28.486Z,57.02
2022-09-14T12:45:28.455Z,56.93
2022-09-14T12:46:28.493Z,55.39
2022-09-14T12:47:28.429Z,57.16
2022-09-14T12:48:28.418Z,55.87
2022-09-14T12:49:28.447Z,57.10
2022-09-14T12:50:28.407Z,57.56
2022-09-14T12:51:28.401Z,60.54
2022-09-14T12:52:28.394Z,59.02